Time;durP1;ratioP1;P1;durP2;ratioP2;P2;SDS_P1;SDS_P2;PMS_P1;PMS_P2;Temp;Humidity;BMP_temperature;BMP_pressure;BME280_temperature;BME280_humidity;BME280_pressure;Samples;Min_cycle;Max_cycle;Signal;HPM_P1;HPM_P2
2022/11/02 00:00:51;;;;;;;;;;;12.10;99.90;;;;;;5008605;28;20042;-68
2022/11/02 00:03:16;;;;;;;8.35;1.58;;;12.00;99.90;;;;;;5003946;28;20404;-68
2022/11/02 00:05:42;;;;;;;6.03;1.20;;;11.90;99.90;;;;;;5004595;28;20086;-68
2022/11/02 00:08:08;;;;;;;6.97;1.30;;;11.90;99.90;;;;;;5006872;28;20065;-68
2022/11/02 00:10:33;;;;;;;8.80;1.35;;;11.90;99.90;;;;;;5005726;28;20053;-68
2022/11/02 00:12:59;;;;;;;9.38;1.20;;;11.90;99.90;;;;;;5006803;28;20057;-68
2022/11/02 00:15:29;;;;;;;9.02;1.23;;;11.90;99.90;;;;;;5006712;28;20397;-68
2022/11/02 00:18:02;;;;;;;6.88;0.90;;;11.90;99.90;;;;;;5008459;28;20056;-68
2022/11/02 00:20:28;;;;;;;11.93;2.38;;;11.80;99.90;;;;;;5011778;28;20071;-68
2022/11/02 00:22:58;;;;;;;6.47;1.08;;;11.80;99.90;;;;;;5008272;28;20050;-68
2022/11/02 00:25:25;;;;;;;4.53;0.70;;;11.80;99.90;;;;;;5008049;28;20073;-68
2022/11/02 00:27:51;;;;;;;8.10;1.00;;;11.80;99.90;;;;;;5007630;28;20548;-67
2022/11/02 00:30:17;;;;;;;6.93;1.08;;;11.80;99.90;;;;;;5004098;28;20038;-67
2022/11/02 00:32:42;;;;;;;5.47;0.95;;;11.80;99.90;;;;;;5005728;28;20038;-68
2022/11/02 00:35:09;;;;;;;8.65;0.93;;;11.80;99.90;;;;;;5006666;28;20088;-68
2022/11/02 00:37:34;;;;;;;9.93;1.35;;;11.90;99.90;;;;;;5008822;28;20048;-68
2022/11/02 00:40:01;;;;;;;7.95;1.15;;;11.90;99.90;;;;;;5006304;28;20038;-67
2022/11/02 00:42:27;;;;;;;9.85;1.55;;;11.80;99.90;;;;;;5007788;28;20042;-68
2022/11/02 00:44:52;;;;;;;11.07;1.30;;;11.90;99.90;;;;;;5007272;28;20050;-69
2022/11/02 00:47:18;;;;;;;11.48;1.38;;;11.90;99.90;;;;;;5010112;28;20335;-69
2022/11/02 00:49:44;;;;;;;7.13;1.35;;;11.90;99.90;;;;;;5008385;28;20437;-68
2022/11/02 00:52:09;;;;;;;9.90;1.20;;;11.90;99.90;;;;;;5009359;28;20448;-67
2022/11/02 00:54:35;;;;;;;11.65;2.03;;;11.80;99.90;;;;;;5008471;28;20050;-68
2022/11/02 00:57:01;;;;;;;11.60;1.63;;;11.70;99.90;;;;;;5002246;28;20038;-68
2022/11/02 00:59:26;;;;;;;11.10;1.60;;;11.80;99.90;;;;;;5006216;28;20081;-68
2022/11/02 01:01:52;;;;;;;8.68;1.30;;;11.60;99.90;;;;;;5006806;28;20046;-67
2022/11/02 01:04:18;;;;;;;10.63;1.60;;;11.70;99.90;;;;;;5002893;28;20561;-67
2022/11/02 01:06:44;;;;;;;9.50;1.90;;;11.70;99.90;;;;;;5006215;28;20041;-67
2022/11/02 01:09:12;;;;;;;13.20;2.08;;;11.60;99.90;;;;;;5002900;28;20180;-68
2022/11/02 01:11:39;;;;;;;14.35;2.20;;;11.70;99.90;;;;;;5008842;28;20034;-67
2022/11/02 01:14:05;;;;;;;14.02;1.77;;;11.70;99.90;;;;;;5011455;28;20111;-67
2022/11/02 01:16:31;;;;;;;13.15;1.63;;;11.70;99.90;;;;;;5010271;28;20184;-68
2022/11/02 01:18:57;;;;;;;11.43;0.95;;;11.70;99.90;;;;;;5030665;28;20068;-67
2022/11/02 01:21:24;;;;;;;9.88;1.65;;;11.70;99.90;;;;;;5012278;28;20041;-67
2022/11/02 01:23:50;;;;;;;14.13;1.88;;;11.60;99.90;;;;;;5030411;28;20495;-67
2022/11/02 01:26:16;;;;;;;12.52;1.52;;;11.70;99.90;;;;;;4995750;28;20057;-67
2022/11/02 01:28:42;;;;;;;7.13;1.35;;;11.60;99.90;;;;;;5031126;28;20428;-67
2022/11/02 01:31:08;;;;;;;16.95;2.08;;;11.60;99.90;;;;;;5031329;28;20034;-67
2022/11/02 01:33:34;;;;;;;12.43;1.83;;;11.60;99.90;;;;;;5030213;28;20485;-67
2022/11/02 01:36:05;;;;;;;14.00;1.83;;;11.50;99.90;;;;;;5013372;28;20045;-67
2022/11/02 01:38:32;;;;;;;13.35;1.80;;;11.50;99.90;;;;;;5011377;28;20057;-67
2022/11/02 01:40:58;;;;;;;16.17;2.00;;;11.40;99.90;;;;;;5031396;28;20041;-67
2022/11/02 01:43:29;;;;;;;12.02;2.00;;;11.40;99.90;;;;;;5030401;28;20115;-67
2022/11/02 01:46:10;;;;;;;17.17;2.05;;;11.40;99.90;;;;;;5007318;28;20549;-67
2022/11/02 01:48:54;;;;;;;10.60;2.00;;;11.50;99.90;;;;;;5007667;28;20062;-67
2022/11/02 01:51:30;;;;;;;9.88;1.77;;;11.40;99.90;;;;;;5029555;28;20108;-67
2022/11/02 01:53:59;;;;;;;14.10;2.28;;;11.40;99.90;;;;;;4993426;28;20118;-67
2022/11/02 01:56:30;;;;;;;11.00;1.80;;;11.40;99.90;;;;;;5013455;28;20072;-67
2022/11/02 01:59:00;;;;;;;13.38;1.90;;;11.40;99.90;;;;;;5030054;28;20384;-67
2022/11/02 02:01:26;;;;;;;10.07;1.52;;;11.30;99.90;;;;;;5011779;28;20049;-67
2022/11/02 02:03:53;;;;;;;13.15;2.00;;;11.30;99.90;;;;;;5010428;28;20067;-67
2022/11/02 02:06:19;;;;;;;11.77;2.13;;;11.30;99.90;;;;;;5010966;28;20041;-68
2022/11/02 02:08:47;;;;;;;11.13;1.85;;;11.30;99.90;;;;;;5030841;28;20038;-68
2022/11/02 02:11:32;;;;;;;14.77;2.15;;;11.40;99.90;;;;;;5030710;28;20436;-67
2022/11/02 02:14:03;;;;;;;15.75;2.30;;;11.40;99.90;;;;;;5025295;28;20033;-68
2022/11/02 02:16:49;;;;;;;10.00;1.52;;;11.40;99.90;;;;;;5028125;28;20057;-67
2022/11/02 02:19:39;;;;;;;11.15;1.98;;;11.40;99.90;;;;;;5023019;28;20046;-67
2022/11/02 02:22:19;;;;;;;8.18;1.88;;;11.40;99.90;;;;;;5037993;28;20051;-68
2022/11/02 02:25:40;;;;;;;17.52;3.25;;;11.50;99.90;;;;;;5010395;28;20172;-68
2022/11/02 02:28:26;;;;;;;15.52;2.38;;;11.50;99.90;;;;;;4964558;28;20050;-68
2022/11/02 02:31:25;;;;;;;14.68;2.03;;;11.50;99.90;;;;;;5029459;28;20059;-68
2022/11/02 02:34:22;;;;;;;11.15;1.98;;;11.50;99.90;;;;;;5027992;28;20045;-67
2022/11/02 02:36:55;;;;;;;8.65;1.52;;;11.40;99.90;;;;;;5029220;28;20431;-67
2022/11/02 02:39:35;;;;;;;9.90;1.73;;;11.40;99.90;;;;;;5029535;28;20076;-67
2022/11/02 02:42:11;;;;;;;9.82;1.30;;;11.30;99.90;;;;;;5011834;28;20460;-67
2022/11/02 02:44:42;;;;;;;5.50;1.05;;;11.20;99.90;;;;;;5030052;28;20041;-67
2022/11/02 02:47:22;;;;;;;4.05;0.60;;;11.20;99.90;;;;;;5005945;28;20483;-67
2022/11/02 02:49:52;;;;;;;5.07;0.88;;;11.20;99.90;;;;;;5028146;28;20051;-68
2022/11/02 02:52:21;;;;;;;4.07;0.70;;;11.10;99.90;;;;;;5028647;28;20037;-67
2022/11/02 02:54:48;;;;;;;7.70;1.00;;;11.00;99.90;;;;;;5030128;28;20044;-67
2022/11/02 02:57:17;;;;;;;8.57;1.13;;;11.00;99.90;;;;;;5029397;28;20049;-67
2022/11/02 02:59:45;;;;;;;8.82;1.60;;;11.00;99.90;;;;;;5012055;28;20049;-67
2022/11/02 03:02:29;;;;;;;8.50;1.38;;;11.00;99.90;;;;;;5008106;28;20045;-67
2022/11/02 03:04:54;;;;;;;5.77;1.03;;;10.90;99.90;;;;;;5026769;28;20486;-68
2022/11/02 03:07:28;;;;;;;6.50;0.82;;;10.90;99.90;;;;;;5010895;28;20315;-67
2022/11/02 03:10:26;;;;;;;6.70;1.38;;;10.90;99.90;;;;;;5012295;28;20053;-68
2022/11/02 03:12:55;;;;;;;9.77;1.10;;;10.80;99.90;;;;;;4939954;28;20045;-67
2022/11/02 03:15:29;;;;;;;3.85;0.90;;;10.70;99.90;;;;;;4989480;28;20049;-67
2022/11/02 03:18:08;;;;;;;7.32;0.85;;;10.70;99.90;;;;;;5007199;28;20389;-68
2022/11/02 03:21:02;;;;;;;7.18;0.93;;;10.60;99.90;;;;;;5010153;28;20041;-68
2022/11/02 03:23:38;;;;;;;4.53;0.90;;;10.60;99.90;;;;;;4997229;28;20501;-68
2022/11/02 03:26:27;;;;;;;8.05;0.80;;;10.50;99.90;;;;;;5007992;28;20050;-68
2022/11/02 03:29:04;;;;;;;6.30;0.90;;;10.50;99.90;;;;;;5009961;28;20056;-67
2022/11/02 03:31:57;;;;;;;5.43;0.90;;;10.30;99.90;;;;;;5030551;28;20041;-68
2022/11/02 03:34:45;;;;;;;5.20;0.52;;;10.30;99.90;;;;;;5006343;28;20050;-68
2022/11/02 03:37:29;;;;;;;6.35;0.80;;;10.20;99.90;;;;;;5006873;28;20061;-68
2022/11/02 03:40:05;;;;;;;10.15;0.60;;;10.10;99.90;;;;;;5009203;28;20322;-68
2022/11/02 03:42:33;;;;;;;6.13;0.73;;;10.10;99.90;;;;;;5006651;28;20067;-68
2022/11/02 03:45:09;;;;;;;7.68;1.30;;;10.10;99.90;;;;;;5007231;28;20046;-68
2022/11/02 03:47:36;;;;;;;11.98;1.30;;;10.10;99.90;;;;;;5001679;28;20046;-68
2022/11/02 03:50:05;;;;;;;5.32;0.88;;;10.10;99.90;;;;;;5006892;28;20053;-68
2022/11/02 03:52:34;;;;;;;7.85;1.10;;;10.10;99.90;;;;;;5006623;28;20026;-68
2022/11/02 03:55:05;;;;;;;10.25;0.90;;;10.10;99.90;;;;;;5006034;28;20042;-68
2022/11/02 03:57:51;;;;;;;9.95;0.77;;;10.10;99.90;;;;;;5007735;28;20049;-68
2022/11/02 04:00:20;;;;;;;4.95;0.93;;;10.00;99.90;;;;;;4990744;28;20088;-68
2022/11/02 04:02:50;;;;;;;10.07;0.95;;;10.00;99.90;;;;;;5006509;28;20045;-68
2022/11/02 04:05:16;;;;;;;9.30;0.90;;;10.00;99.90;;;;;;5007457;28;20042;-68
2022/11/02 04:10:31;;;;;;;9.57;1.52;;;10.10;99.90;;;;;;5009380;28;20045;-68
2022/11/02 04:16:01;;;;;;;9.35;1.35;;;10.20;99.90;;;;;;4933313;28;20055;-68
2022/11/02 04:21:11;;;;;;;6.55;0.93;;;10.10;99.90;;;;;;4978972;28;20108;-68
2022/11/02 04:26:20;;;;;;;9.27;1.10;;;10.00;99.90;;;;;;5005343;28;20155;-68
2022/11/02 04:28:46;;;;;;;11.35;1.50;;;10.10;99.90;;;;;;5008770;28;20337;-68
2022/11/02 04:31:12;;;;;;;10.40;1.63;;;10.20;99.90;;;;;;5007621;28;20253;-67
2022/11/02 04:33:39;;;;;;;7.38;1.40;;;10.30;99.90;;;;;;5007239;28;20038;-68
2022/11/02 04:36:06;;;;;;;7.30;0.80;;;10.20;99.90;;;;;;5003381;28;20406;-67
2022/11/02 04:38:41;;;;;;;8.82;1.38;;;10.20;99.90;;;;;;5004726;28;20199;-67
2022/11/02 04:44:03;;;;;;;9.45;1.45;;;10.30;99.90;;;;;;5005769;28;20524;-67
2022/11/02 04:46:31;;;;;;;6.75;1.20;;;10.30;99.90;;;;;;5006865;28;20037;-67
2022/11/02 04:48:56;;;;;;;8.05;1.17;;;10.30;99.90;;;;;;5004063;28;20050;-67
2022/11/02 04:51:24;;;;;;;6.32;1.23;;;10.30;99.90;;;;;;5010611;28;20046;-67
2022/11/02 04:53:51;;;;;;;7.90;1.13;;;10.40;99.90;;;;;;5011620;28;20068;-67
2022/11/02 04:56:17;;;;;;;8.25;1.58;;;10.40;99.90;;;;;;5011771;28;20473;-67
2022/11/02 04:58:46;;;;;;;9.07;1.42;;;10.40;99.90;;;;;;5012390;28;20049;-67
2022/11/02 05:01:14;;;;;;;9.55;1.70;;;10.40;99.90;;;;;;5008668;28;20064;-67
2022/11/02 05:03:40;;;;;;;7.68;1.48;;;10.50;99.90;;;;;;5009856;28;20038;-68
2022/11/02 05:06:08;;;;;;;8.85;1.70;;;10.50;99.90;;;;;;4991640;28;20046;-67
2022/11/02 05:08:35;;;;;;;9.05;1.23;;;10.60;99.90;;;;;;5003718;28;20130;-67
2022/11/02 05:11:01;;;;;;;9.70;1.35;;;10.60;99.90;;;;;;5010240;28;20448;-67
2022/11/02 05:13:27;;;;;;;9.23;1.83;;;10.60;99.90;;;;;;5012137;28;20037;-67
2022/11/02 05:15:56;;;;;;;8.32;1.88;;;10.60;99.90;;;;;;5029563;28;20132;-67
2022/11/02 05:18:22;;;;;;;12.85;1.70;;;10.60;99.90;;;;;;5010862;28;20565;-67
2022/11/02 05:20:50;;;;;;;10.40;1.55;;;10.60;99.90;;;;;;5004077;28;20470;-67
2022/11/02 05:23:17;;;;;;;8.90;1.70;;;10.60;99.90;;;;;;5014341;28;20033;-67
2022/11/02 05:25:50;;;;;;;10.52;1.75;;;10.70;99.90;;;;;;5011821;28;20477;-68
2022/11/02 05:28:16;;;;;;;10.48;1.60;;;10.70;99.90;;;;;;5010660;28;20045;-68
2022/11/02 05:30:41;;;;;;;9.32;1.50;;;10.70;99.90;;;;;;5011865;28;20029;-68
2022/11/02 05:33:07;;;;;;;8.88;1.80;;;10.70;99.90;;;;;;5013445;28;20029;-68
2022/11/02 05:35:32;;;;;;;10.70;1.50;;;10.70;99.90;;;;;;5012408;28;20409;-68
2022/11/02 05:37:58;;;;;;;14.45;1.92;;;10.70;99.90;;;;;;5029590;28;20124;-68
2022/11/02 05:40:24;;;;;;;8.30;1.70;;;10.80;99.90;;;;;;5031423;28;20049;-68
2022/11/02 05:42:49;;;;;;;11.05;2.55;;;10.80;99.90;;;;;;5031546;28;20041;-68
2022/11/02 05:45:15;;;;;;;11.07;2.03;;;10.70;99.90;;;;;;5010521;28;20045;-68
2022/11/02 05:47:41;;;;;;;9.02;1.80;;;10.70;99.90;;;;;;5028542;28;20073;-67
2022/11/02 05:50:07;;;;;;;9.57;1.77;;;10.70;99.90;;;;;;5031043;28;20033;-67
2022/11/02 05:52:34;;;;;;;14.60;3.05;;;10.70;99.90;;;;;;5030670;28;20064;-68
2022/11/02 05:54:59;;;;;;;12.73;1.85;;;10.70;99.90;;;;;;5014892;28;20041;-68
2022/11/02 05:57:25;;;;;;;13.68;2.50;;;10.70;99.90;;;;;;5030635;28;20033;-68
2022/11/02 05:59:50;;;;;;;14.85;2.28;;;10.70;99.90;;;;;;5023293;28;20394;-67
2022/11/02 06:02:16;;;;;;;15.02;1.90;;;10.60;99.90;;;;;;5008519;28;20049;-67
2022/11/02 06:04:42;;;;;;;15.32;2.60;;;10.60;99.90;;;;;;5010612;28;20041;-67
2022/11/02 06:07:07;;;;;;;12.77;2.30;;;10.70;99.90;;;;;;5027276;28;20034;-68
2022/11/02 06:09:33;;;;;;;11.38;2.22;;;10.60;99.90;;;;;;5008605;28;20056;-67
2022/11/02 06:11:59;;;;;;;12.23;2.28;;;10.60;99.90;;;;;;5029450;28;20517;-67
2022/11/02 06:14:24;;;;;;;13.82;2.08;;;10.60;99.90;;;;;;5005807;28;20105;-67
2022/11/02 06:16:50;;;;;;;15.60;2.13;;;10.50;99.90;;;;;;5006519;28;20052;-67
2022/11/02 06:19:15;;;;;;;11.07;1.80;;;10.50;99.90;;;;;;5004471;28;20038;-67
2022/11/02 06:21:41;;;;;;;12.07;2.35;;;10.50;99.90;;;;;;5001808;28;20428;-67
2022/11/02 06:24:07;;;;;;;14.38;2.33;;;10.40;99.90;;;;;;5009001;28;20045;-67
2022/11/02 06:26:33;;;;;;;12.02;1.75;;;10.40;99.90;;;;;;5007245;28;20050;-67
2022/11/02 06:28:58;;;;;;;14.93;2.30;;;10.40;99.90;;;;;;5008136;28;20180;-67
2022/11/02 06:31:24;;;;;;;18.77;2.47;;;10.40;99.90;;;;;;5007387;28;20133;-67
2022/11/02 06:33:50;;;;;;;8.52;1.75;;;10.40;99.90;;;;;;5007665;28;20129;-67
2022/11/02 06:36:15;;;;;;;12.52;2.25;;;10.30;99.90;;;;;;5007543;28;20120;-67
2022/11/02 06:38:41;;;;;;;12.45;1.80;;;10.30;99.90;;;;;;5009668;28;20041;-67
2022/11/02 06:41:07;;;;;;;14.13;2.40;;;10.30;99.90;;;;;;5007336;28;20080;-67
2022/11/02 06:43:35;;;;;;;14.27;2.42;;;10.30;99.90;;;;;;5008154;28;20450;-68
2022/11/02 06:46:01;;;;;;;13.38;2.28;;;10.30;99.90;;;;;;5006998;28;20041;-67
2022/11/02 06:48:27;;;;;;;15.10;2.20;;;10.40;99.90;;;;;;5004764;28;20521;-67
2022/11/02 06:50:52;;;;;;;9.88;1.70;;;10.40;99.90;;;;;;5002926;28;20515;-67
2022/11/02 06:53:18;;;;;;;11.23;2.20;;;10.50;99.90;;;;;;5004336;28;20053;-67
2022/11/02 06:55:44;;;;;;;15.70;2.45;;;10.50;99.90;;;;;;5005119;28;20529;-67
2022/11/02 06:58:10;;;;;;;14.07;2.10;;;10.60;99.90;;;;;;4999629;28;20081;-68
2022/11/02 07:00:35;;;;;;;14.30;2.35;;;10.60;99.90;;;;;;5002824;28;20584;-67
2022/11/02 07:03:04;;;;;;;13.38;2.38;;;10.60;99.90;;;;;;5003061;28;20042;-67
2022/11/02 07:05:30;;;;;;;23.58;7.18;;;10.70;99.90;;;;;;5004233;28;20052;-67
2022/11/02 07:07:56;;;;;;;16.60;2.78;;;10.70;99.90;;;;;;4998634;28;20056;-68
2022/11/02 07:10:22;;;;;;;15.18;2.75;;;10.90;99.90;;;;;;5001650;28;20044;-68
2022/11/02 07:12:51;;;;;;;13.98;1.90;;;11.00;99.90;;;;;;5004561;28;20128;-68
2022/11/02 07:15:16;;;;;;;16.20;2.55;;;11.10;99.90;;;;;;4969181;28;1090973;-68
2022/11/02 07:17:42;;;;;;;15.40;2.08;;;11.00;99.90;;;;;;5009501;28;20092;-68
2022/11/02 07:20:09;;;;;;;16.13;2.25;;;10.90;99.90;;;;;;5008600;28;20042;-68
2022/11/02 07:22:35;;;;;;;14.63;2.13;;;10.90;99.90;;;;;;5007074;28;20224;-68
2022/11/02 07:25:01;;;;;;;18.20;2.80;;;10.90;99.90;;;;;;5008172;28;20045;-68
2022/11/02 07:27:27;;;;;;;22.45;3.00;;;10.80;99.90;;;;;;5006356;28;20073;-69
2022/11/02 07:29:53;;;;;;;17.75;2.47;;;10.80;99.90;;;;;;5001566;28;20071;-69
2022/11/02 07:32:18;;;;;;;19.20;2.75;;;10.70;99.90;;;;;;5004359;28;20050;-69
2022/11/02 07:34:44;;;;;;;12.75;1.65;;;10.60;99.90;;;;;;5012872;28;20042;-69
2022/11/02 07:37:09;;;;;;;16.30;2.13;;;10.50;99.90;;;;;;5010475;28;20036;-69
2022/11/02 07:39:35;;;;;;;118.57;94.60;;;10.50;99.90;;;;;;5013718;28;20044;-69
2022/11/02 07:42:01;;;;;;;25.05;9.43;;;10.40;99.90;;;;;;5012056;28;20033;-68
2022/11/02 07:44:28;;;;;;;11.32;1.90;;;10.40;99.90;;;;;;5012025;28;20077;-68
2022/11/02 07:46:53;;;;;;;16.83;2.15;;;10.40;99.90;;;;;;5009613;28;20060;-68
2022/11/02 07:49:19;;;;;;;14.48;1.98;;;10.30;99.90;;;;;;5010740;28;20045;-69
2022/11/02 07:51:45;;;;;;;10.23;2.30;;;10.30;99.90;;;;;;5009227;28;20117;-69
2022/11/02 07:54:10;;;;;;;20.98;2.13;;;10.30;99.90;;;;;;5006733;28;20069;-68
2022/11/02 07:56:36;;;;;;;10.50;1.67;;;10.30;99.90;;;;;;5007634;28;20041;-68
2022/11/02 07:59:02;;;;;;;14.77;2.28;;;10.40;99.90;;;;;;5006436;28;20551;-68
2022/11/02 08:01:27;;;;;;;19.05;2.60;;;10.60;99.90;;;;;;5010681;28;20120;-68
2022/11/02 08:03:53;;;;;;;16.00;2.40;;;10.60;99.90;;;;;;5007065;28;20061;-68
2022/11/02 08:06:19;;;;;;;19.52;2.03;;;10.60;99.90;;;;;;5008065;28;20046;-68
2022/11/02 08:08:44;;;;;;;13.43;1.65;;;10.60;99.90;;;;;;5005696;28;20076;-67
2022/11/02 08:11:10;;;;;;;13.15;2.42;;;10.70;99.90;;;;;;5008560;28;20042;-68
2022/11/02 08:13:36;;;;;;;11.27;1.40;;;10.70;99.90;;;;;;5008125;28;20338;-68
2022/11/02 08:16:02;;;;;;;20.30;2.00;;;10.70;99.90;;;;;;5024250;28;20050;-68
2022/11/02 08:18:29;;;;;;;19.63;2.30;;;11.10;99.90;;;;;;5009703;28;20053;-67
2022/11/02 08:20:58;;;;;;;14.45;2.40;;;11.30;99.90;;;;;;5011479;28;20492;-68
2022/11/02 08:23:25;;;;;;;19.17;3.13;;;11.50;99.90;;;;;;5009785;28;20088;-67
2022/11/02 08:25:51;;;;;;;13.85;1.75;;;11.50;99.90;;;;;;5010402;28;20048;-68
2022/11/02 08:28:20;;;;;;;12.00;1.88;;;11.50;99.90;;;;;;5013700;28;20061;-67
2022/11/02 08:30:46;;;;;;;13.55;1.88;;;11.80;99.90;;;;;;5013143;28;20183;-67
2022/11/02 08:33:15;;;;;;;17.20;4.45;;;12.10;99.90;;;;;;5030716;28;20141;-68
2022/11/02 08:35:43;;;;;;;29.48;17.13;;;12.20;99.90;;;;;;5014432;28;20547;-67
2022/11/02 08:38:09;;;;;;;13.93;1.55;;;12.40;99.90;;;;;;5033036;28;20060;-67
2022/11/02 08:40:36;;;;;;;11.13;1.73;;;13.00;99.90;;;;;;5027988;28;20052;-67
2022/11/02 08:43:04;;;;;;;16.55;2.45;;;13.80;99.90;;;;;;5032183;28;20556;-67
2022/11/02 08:45:32;;;;;;;9.90;1.58;;;14.80;99.90;;;;;;5012938;28;20461;-67
2022/11/02 08:47:58;;;;;;;11.93;1.80;;;15.80;99.90;;;;;;5031101;28;20060;-67
2022/11/02 08:50:26;;;;;;;19.77;1.83;;;16.40;99.90;;;;;;4997032;28;20370;-67
2022/11/02 08:52:51;;;;;;;7.05;0.98;;;17.00;99.90;;;;;;5030586;28;20045;-67
2022/11/02 08:55:17;;;;;;;13.73;1.50;;;17.50;99.90;;;;;;5013936;28;20041;-67
2022/11/02 08:57:51;;;;;;;7.05;1.13;;;17.90;99.90;;;;;;5027573;28;20124;-67
2022/11/02 09:00:18;;;;;;;;;;;18.30;99.90;;;;;;4995461;28;20379;-67
2022/11/02 09:02:56;;;;;;;10.32;3.08;;;18.60;99.90;;;;;;5030158;28;19917;-67
2022/11/02 09:05:22;;;;;;;7.75;1.60;;;18.90;99.90;;;;;;5012903;28;20133;-67
2022/11/02 09:07:48;;;;;;;5.72;0.93;;;19.30;99.90;;;;;;5013337;28;20467;-67
2022/11/02 09:10:13;;;;;;;5.30;1.15;;;19.50;99.90;;;;;;5032395;28;20428;-67
2022/11/02 09:12:39;;;;;;;4.45;1.00;;;19.60;99.90;;;;;;5010584;28;20044;-67
2022/11/02 09:15:05;;;;;;;8.50;1.08;;;19.30;99.90;;;;;;5026327;28;20446;-67
2022/11/02 09:17:30;;;;;;;9.48;1.10;;;19.40;99.90;;;;;;5028874;28;20044;-68
2022/11/02 09:19:56;;;;;;;8.25;1.02;;;19.50;99.90;;;;;;5030623;28;20124;-67
2022/11/02 09:22:22;;;;;;;5.97;1.20;;;19.70;99.90;;;;;;5009759;28;20085;-67
2022/11/02 09:24:47;;;;;;;9.02;1.70;;;20.20;99.90;;;;;;5032174;28;20041;-67
2022/11/02 09:27:13;;;;;;;27.63;22.75;;;20.40;99.90;;;;;;5029168;28;20053;-67
2022/11/02 09:29:39;;;;;;;9.00;1.63;;;20.50;99.90;;;;;;5027267;28;20116;-66
2022/11/02 09:32:04;;;;;;;8.88;1.25;;;20.50;99.90;;;;;;5013701;28;20077;-66
2022/11/02 09:34:30;;;;;;;7.00;1.25;;;20.60;99.90;;;;;;5028812;28;20034;-66
2022/11/02 09:36:56;;;;;;;14.60;9.52;;;20.60;99.90;;;;;;5028926;28;20038;-67
2022/11/02 09:39:23;;;;;;;8.10;2.85;;;20.60;99.90;;;;;;5031348;28;20033;-67
2022/11/02 09:42:04;;;;;;;7.32;1.30;;;21.10;99.90;;;;;;5012236;28;20081;-67
2022/11/02 09:44:58;;;;;;;8.05;1.35;;;21.20;99.90;;;;;;5028743;28;20048;-67
2022/11/02 09:47:26;;;;;;;8.10;1.35;;;20.90;99.90;;;;;;5028336;28;20053;-67
2022/11/02 09:49:54;;;;;;;8.40;1.40;;;20.50;99.90;;;;;;5028416;28;20036;-67
2022/11/02 09:52:39;;;;;;;9.23;1.75;;;20.30;99.90;;;;;;5011977;28;20076;-67
2022/11/02 09:55:14;;;;;;;12.10;1.60;;;20.20;99.90;;;;;;5029892;28;20128;-67
2022/11/02 09:57:43;;;;;;;10.48;2.10;;;20.00;99.90;;;;;;5028348;28;20037;-67
2022/11/02 10:00:13;;;;;;;7.22;1.38;;;20.10;99.90;;;;;;5026357;28;20053;-67
2022/11/02 10:02:57;;;;;;;11.32;1.75;;;19.90;99.90;;;;;;5022726;28;20076;-66
2022/11/02 10:06:01;;;;;;;8.43;1.70;;;20.00;99.90;;;;;;5028936;28;20087;-67
2022/11/02 10:08:50;;;;;;;4.70;1.02;;;20.30;99.90;;;;;;5004531;28;20085;-66
2022/11/02 10:11:26;;;;;;;11.00;1.73;;;20.40;99.90;;;;;;5027563;28;20044;-66
2022/11/02 10:14:29;;;;;;;8.20;1.50;;;20.40;99.90;;;;;;5023204;28;20037;-66
2022/11/02 10:17:15;;;;;;;10.85;1.30;;;20.20;99.90;;;;;;4987714;28;20375;-66
2022/11/02 14:46:55;;;;;;;10.02;2.03;;;13.00;99.90;;;;;;5022708;28;20049;-67
2022/11/02 14:49:24;;;;;;;8.02;1.58;;;13.00;99.90;;;;;;5022863;28;20184;-67
2022/11/02 14:52:19;;;;;;;10.90;1.50;;;12.90;99.90;;;;;;5028173;28;20041;-67
2022/11/02 14:55:07;;;;;;;12.32;1.85;;;12.90;99.90;;;;;;5029148;28;20356;-67
2022/11/02 14:57:37;;;;;;;10.63;1.83;;;12.90;99.90;;;;;;5026486;28;20049;-67
2022/11/02 15:00:19;;;;;;;11.07;1.25;;;12.80;99.90;;;;;;5026874;28;20083;-67
2022/11/02 15:02:46;;;;;;;8.57;1.45;;;12.80;99.90;;;;;;5005191;28;21260;-67
2022/11/02 15:05:35;;;;;;;10.93;1.38;;;12.80;99.90;;;;;;5025555;28;20048;-67
2022/11/02 15:08:05;;;;;;;9.93;1.63;;;12.70;99.90;;;;;;5029810;28;20045;-67
2022/11/02 15:10:31;;;;;;;8.35;1.08;;;12.60;99.90;;;;;;5009888;28;20064;-67
2022/11/02 15:13:18;;;;;;;10.50;1.52;;;12.60;99.90;;;;;;5028268;28;20029;-67
2022/11/02 15:15:49;;;;;;;10.68;1.38;;;12.60;99.90;;;;;;5028887;28;20080;-67
2022/11/02 15:18:21;;;;;;;8.15;1.40;;;12.60;99.90;;;;;;5025742;28;20041;-64
2022/11/02 15:21:09;;;;;;;12.90;1.75;;;12.50;99.90;;;;;;5028068;28;20045;-66
2022/11/02 15:24:26;;;;;;;8.38;1.83;;;12.50;99.90;;;;;;5028452;28;20063;-66
2022/11/02 15:26:58;;;;;;;6.93;1.60;;;12.30;99.90;;;;;;4968510;28;20596;-67
2022/11/02 15:29:33;;;;;;;11.43;2.05;;;12.20;99.90;;;;;;5017735;28;20057;-66
2022/11/02 15:32:00;;;;;;;10.13;1.73;;;12.20;99.90;;;;;;5027634;28;20033;-66
2022/11/02 15:34:39;;;;;;;8.57;1.63;;;12.10;99.90;;;;;;5031190;28;20556;-67
2022/11/02 15:37:05;;;;;;;11.95;1.38;;;12.10;99.90;;;;;;5029811;28;20034;-67
2022/11/02 15:39:31;;;;;;;7.50;1.33;;;12.00;99.90;;;;;;5029526;28;20053;-67
2022/11/02 15:42:24;;;;;;;10.82;2.15;;;11.90;99.90;;;;;;5028810;28;20531;-67
2022/11/02 15:45:08;;;;;;;9.98;2.05;;;11.90;99.90;;;;;;5000874;28;20049;-67
2022/11/02 15:47:40;;;;;;;9.95;1.98;;;11.80;99.90;;;;;;5027268;28;20045;-66
2022/11/02 15:50:18;;;;;;;9.40;1.55;;;11.70;99.90;;;;;;5024906;28;20040;-66
2022/11/02 15:53:11;;;;;;;8.52;1.95;;;11.60;99.90;;;;;;5027990;28;20037;-67
2022/11/02 15:55:47;;;;;;;9.55;1.88;;;11.50;99.90;;;;;;5028673;28;20033;-66
2022/11/02 15:58:20;;;;;;;11.48;1.70;;;11.50;99.90;;;;;;5024420;28;20038;-66
2022/11/02 16:01:22;;;;;;;10.90;1.17;;;11.40;99.90;;;;;;5009102;28;20042;-66
2022/11/02 16:03:55;;;;;;;8.63;1.10;;;11.40;99.90;;;;;;5027674;28;20033;-66
2022/11/02 16:06:48;;;;;;;10.18;1.92;;;11.30;99.90;;;;;;5024469;28;20029;-66
2022/11/02 16:09:47;;;;;;;6.70;1.15;;;11.20;99.90;;;;;;5005082;28;20060;-66
2022/11/02 16:12:19;;;;;;;7.50;1.35;;;11.20;99.90;;;;;;5014205;28;20046;-67
2022/11/02 16:15:11;;;;;;;10.45;1.55;;;11.10;99.90;;;;;;5008014;28;20076;-67
2022/11/02 16:17:37;;;;;;;11.40;1.58;;;11.00;99.90;;;;;;5027340;28;20037;-66
2022/11/02 16:20:23;;;;;;;10.65;1.55;;;10.90;99.90;;;;;;5027866;28;20052;-66
2022/11/02 16:22:50;;;;;;;9.07;1.63;;;10.90;99.90;;;;;;5029433;28;20079;-66
2022/11/02 16:25:39;;;;;;;13.25;1.52;;;10.80;99.90;;;;;;5029499;28;20086;-66
2022/11/02 16:28:28;;;;;;;9.25;1.70;;;10.80;99.90;;;;;;5027774;28;20056;-67
2022/11/02 16:31:06;;;;;;;9.48;1.33;;;10.70;99.90;;;;;;5022762;28;20042;-66
2022/11/02 16:33:40;;;;;;;9.60;1.35;;;10.70;99.90;;;;;;5025864;28;20116;-66
2022/11/02 16:36:07;;;;;;;6.55;1.23;;;10.60;99.90;;;;;;5023992;28;20104;-66
2022/11/02 16:38:35;;;;;;;12.05;2.03;;;10.60;99.90;;;;;;5027506;28;20052;-66
2022/11/02 16:41:03;;;;;;;9.07;1.83;;;10.60;99.90;;;;;;5010822;28;20073;-66
2022/11/02 16:43:29;;;;;;;14.07;2.03;;;10.60;99.90;;;;;;4993788;28;20061;-66
2022/11/02 16:46:03;;;;;;;12.82;2.22;;;10.60;99.90;;;;;;5024962;28;20136;-66
2022/11/02 16:48:31;;;;;;;12.83;1.73;;;10.60;99.90;;;;;;5014383;28;20052;-66
2022/11/02 16:51:05;;;;;;;10.43;1.77;;;10.50;99.90;;;;;;5030901;28;20596;-66
2022/11/02 16:53:36;;;;;;;10.15;1.90;;;10.50;99.90;;;;;;5030354;28;20373;-66
2022/11/02 16:56:28;;;;;;;14.35;2.35;;;10.50;99.90;;;;;;5029039;28;20232;-67
2022/11/02 16:58:59;;;;;;;16.90;2.40;;;10.60;99.90;;;;;;5008508;28;20396;-66
2022/11/02 17:01:26;;;;;;;10.40;1.55;;;10.60;99.90;;;;;;5028365;28;20446;-66
2022/11/02 17:03:52;;;;;;;10.27;1.70;;;10.60;99.90;;;;;;5031417;28;20144;-66
2022/11/02 17:06:18;;;;;;;9.88;1.67;;;10.60;99.90;;;;;;5031817;28;20033;-66
2022/11/02 17:08:54;;;;;;;13.10;1.92;;;10.60;99.90;;;;;;5006000;28;20342;-66
2022/11/02 17:11:20;;;;;;;5.85;1.60;;;10.60;99.90;;;;;;5032853;28;20037;-66
2022/11/02 17:13:55;;;;;;;10.18;2.08;;;10.60;99.90;;;;;;5007714;28;20037;-66
2022/11/02 17:16:21;;;;;;;12.55;1.85;;;10.60;99.90;;;;;;5035917;23;20053;-85
2022/11/02 17:18:47;;;;;;;10.48;1.80;;;10.60;99.90;;;;;;5012526;28;20057;-84
2022/11/02 17:21:13;;;;;;;8.35;1.67;;;10.60;99.90;;;;;;5014947;28;20042;-84
2022/11/02 17:23:43;;;;;;;8.55;1.50;;;10.60;99.90;;;;;;5031012;23;20052;-65
2022/11/02 17:26:36;;;;;;;8.50;1.52;;;10.60;99.90;;;;;;5044564;28;20041;-66
2022/11/02 17:29:25;;;;;;;11.35;1.63;;;10.60;99.90;;;;;;5021308;28;20060;-67
2022/11/02 17:31:55;;;;;;;10.68;1.88;;;10.60;99.90;;;;;;5043166;28;20503;-66
2022/11/02 17:34:23;;;;;;;9.10;2.10;;;10.60;99.90;;;;;;5041761;28;20172;-66
2022/11/02 17:36:52;;;;;;;11.77;2.00;;;10.60;99.90;;;;;;5038574;28;20106;-66
2022/11/02 17:39:20;;;;;;;12.48;1.98;;;10.50;99.90;;;;;;5046135;28;20053;-66
2022/11/02 17:44:50;;;;;;;9.45;2.33;;;10.50;99.90;;;;;;5026921;28;20084;-66